Северо-западная Россия

РегЦ Санкт-Петербург

Региональный Центр Единой Системы Организации Воздушного Движения (РегЦ ЕС ОрВД) Санкт-Петербург является структурным подразделением VATRUS.

В зону ответственности центра в сети VATSIM входит воздушное пространство над территориями Ленинградской, Новгородской, Псковской, Вологодской области, Мурманской, Архангельской областями, а так же Республики Карелия и Коми, Ненецкого АО.

Лого Северо-западная Россия
Контакты

FSS региона
Обозначение
RU-NWC_FSS
Позывной
Северо-Запад Контроль
Частота
135.620
Примечание
Top-down
Инструкторы региона
Akhmadjon Saidov (Instructor)
Aleksandr Ovodenko * (Controller)
Alexandr Vaganov (Instructor)
Alexey Kaznakov (Instructor)
Alexey Zimin (Instructor)
Dmitry Bugaychuk (Instructor)
Ekaterina Romanova (Instructor)
Maksim Otto (Instructor)
Maxim Demidov * (Controller)
Nikita Assorov * (Unknown)
Oleg Alov * (Controller)
Stanley Yorke * (Controller)
Vadim Drachev (Instructor)
Viktor Ivanov (Instructor)
Yury Koryagin (Instructor)
Включает в себя

РПИ Калининград
РПИ Санкт-Петербург

Диспетчеры региона

Диспетчер Рейтинг Допуски *
Akhmadjon Saidov Instructor ULLL_CTR
Aleksandr Manko Controller ULLL_CTR
Aleksandr Ovodenko Controller ULLL_CTR , UMKK_CTR
Alexandr Vaganov Instructor ULLL_CTR
Alexey Dobronravov Instructor UMKK_CTR
Alexey Zimin Instructor ULLL_CTR
Dmitry Bugaychuk Instructor ULLL_CTR , UMKK_CTR
Ekaterina Romanova Instructor ULLL_CTR , UMKK_CTR
Maksim Otto Instructor ULLL_CTR , UMKK_CTR
Maxim Demidov Controller ULLL_CTR
Mihail Kolesnik Unknown ULLL_CTR
Mikhail Satsik Controller ULLL_CTR , ULLL_1_APP, ULLL_APP, ULLL_2_APP
Nikita Assorov Instructor UMKK_CTR
Nikita Voytko Controller ULLL_CTR
Oleg Alov Controller ULLL_CTR , UMKK_CTR
Pavel Sergienko Senior Student ULLL_CTR  *, ULLL_APP, ULLL_1_APP, ULLL_2_APP, ULAA_APP
Robert Farber Controller ULLL_CTR
Serafim Bedershtet Controller ULLL_CTR
Stanley Yorke Controller ULLL_CTR , UMKK_CTR
Vadim Drachev Instructor ULLL_CTR
Viktor Ivanov Instructor ULLL_CTR , UMKK_CTR
Vladimir Anisimov Senior Controller ULLL_CTR
Yan Stetsenko Controller ULLL_CTR
Aleksandr Mirtov Student 2 ULMM_TWR, ULLI_3_TWR, ULLI_2_TWR, ULLI_1_TWR, ULLI_TWR, UMKK_TWR
Alexander Mikhin Instructor ULLI_1_TWR, ULLI_2_TWR, ULLI_TWR, ULLI_3_TWR
Alexandr Sosnovsky Senior Student ULAA_APP, ULLL_APP, ULLL_1_APP, ULLL_2_APP
Andrey Kashunin Student ULLI_GND
Andrey Mironov Student 2 ULAA_TWR, ULMM_TWR, ULLI_TWR, ULLI_1_TWR, ULLI_2_TWR, ULLI_3_TWR, ULLI_R_APP*
Andrey Tarasov Senior Student ULLI_TWR, ULLI_1_TWR, ULLI_2_TWR, ULLI_3_TWR
Andrey Volanskiy Student 2 ULLI_2_TWR, ULLI_TWR, ULLI_1_TWR, ULLI_3_TWR
Anton Dvoretskiy Student ULLI_GND
Arseny Sitnikov Student 2 ULLI_TWR, ULLI_1_TWR, ULLI_3_TWR, ULLI_2_TWR
Artem Badalov Senior Student ULLL_2_APP, ULLL_1_APP, ULLL_APP
Artur Mitskus Student 2 ULLI_GND, UMKK_TWR
Daniil Deev Student ULLI_2_TWR*, ULLI_GND, ULLI_TWR*, ULLI_3_TWR*, ULLI_1_TWR*
Daniil Dolgikh Student ULLI_GND
David Markarian Student 2 ULLI_3_TWR, ULLI_2_TWR, ULLI_1_TWR, ULLI_TWR
Denis Zhmurenko Student 2 ULLI_TWR, ULLI_3_TWR, ULLI_2_TWR, ULLI_1_TWR
Dmitrii Ermakov Student 2 ULLI_2_TWR, ULLI_3_TWR, ULLI_TWR, ULLI_1_TWR
Dmitry Berezin Student 2 ULLI_TWR, ULLI_1_TWR, ULLI_2_TWR, ULLI_3_TWR
Evgeny Zuev Senior Student ULLI_GND
Grigoriy Novikov Student 2 ULAA_TWR, ULLI_TWR, ULMM_TWR, ULLI_3_TWR, ULLI_2_TWR, ULLI_1_TWR, UMKK_TWR
Ilya Bogdanov Student ULLI_GND, ULLI_TWR*, ULLI_1_TWR*, ULLI_2_TWR*, ULLI_3_TWR*
Ilya Uvarov Student UMKK_TWR*
Ivan Chumakov Student 2 ULLI_3_TWR, ULLI_2_TWR, ULLI_1_TWR, ULLI_TWR, UMKK_TWR
Makar Lyzhnik Student ULLI_GND
Nikita Ovsyannikov Student 2 ULLI_R_APP*, ULLI_TWR, ULLI_1_TWR, ULLI_2_TWR, ULLI_3_TWR, ULMM_TWR, UUYY_TWR!!!, UMKK_TWR
Nikita Smirnov Student ULLI_GND
Nikita Zikeev Senior Student UMKK_APP
Pavel Gavrilov Senior Student ULLL_APP, ULLL_1_APP, ULLL_2_APP, ULMM_R_APP, UMKK_APP
Pavel Popov Student ULLI_GND
Pavel Romanov Student 2 ULLI_1_TWR, ULAA_TWR, ULLI_3_TWR, ULLI_2_TWR, ULLI_TWR
Sasha Klyucharev Student 2 ULLI_TWR, ULLI_1_TWR, ULLI_2_TWR, ULLI_3_TWR
Sofya Belyaeva Student 2 ULLI_3_TWR, ULLI_1_TWR, ULLI_2_TWR, ULLI_TWR
Vyacheslav Varlamov Student ULLI_GND
Yakov Polushkin Student 2 ULLI_TWR, ULLI_1_TWR, ULLI_2_TWR, ULLI_3_TWR, UMKK_TWR
Yan Sheyfer Senior Student ULLI_TWR, ULLI_1_TWR, ULLI_2_TWR, ULLI_3_TWR
Yury Pushkaryov Senior Student ULLL_APP, ULLL_1_APP, ULLL_2_APP, ULAA_APP

Аэропорты региона

ICAO Город Название Погода
ULLI Санкт-Петербург Пулково ULLI 190800Z 26007MPS 9999 SCT040 22/11 Q1009 R88/090060 NOSIG
ULAA Архангельск Архангельск ULAA 190800Z 13002MPS 3100 -SHRA BR OVC006CB 17/17 Q0998 R08/290060 NOSIG RMK QBB180 QFE747/0996
UMKK Калининград Калининград UMKK 190800Z 24007MPS 9999 OVC017 19/17 Q1007 R24/CLRD95 NOSIG RMK QFE754/1006
ULKK Котлас Котлас
XLLV Левашово Левашово
ULMM Мурманск Мурманск ULMM 190800Z 09003MPS 9000 -SHRA BKN040CB 16/15 Q1002 R13/290157 NOSIG RMK QFE745
ULAM Нарьян-Мар Нарьян-Мар
ULPB Петрозаводск Бесовец ULPB 190808Z 26006G11MPS 220V300 CAVOK 21/14 Q1004 R19/CLRD65 NOSIG RMK QFE749/0999
ULOO Псков Псков ULOO 190800Z 16005MPS 130V200 CAVOK 22/14 Q1010 R19/090055 NOSIG RMK QFE753
UUYY Сыктывкар Сыктывкар UUYY 190800Z 05003MPS 9999 SCT036CB 20/16 Q1004 R18/CLRD61 TEMPO 6000 -TSRA RMK QFE744/0992
ULWC Череповец Череповец ULWC 190800Z 27003G08MPS 9999 SCT033 22/13 Q1008 R21/190060 NOSIG RMK QFE746/0995